Time;durP1;ratioP1;P1;durP2;ratioP2;P2;SDS_P1;SDS_P2;PMS_P1;PMS_P2;Temp;Humidity;BMP_temperature;BMP_pressure;BME280_temperature;BME280_humidity;BME280_pressure;Samples;Min_cycle;Max_cycle;Signal;HPM_P1;HPM_P2
2023/03/16 00:02:09;;;;;;;0.00;0.00;;;3.20;1.00;;;;;;5050814;28;20041;-84
2023/03/16 00:04:37;;;;;;;0.00;0.00;;;3.30;1.00;;;;;;5048722;28;20108;-84
2023/03/16 00:07:05;;;;;;;1.45;0.47;;;3.30;1.00;;;;;;5048277;28;20045;-84
2023/03/16 00:09:30;;;;;;;0.20;0.20;;;4.20;1.00;;;;;;5049783;28;20045;-83
2023/03/16 00:12:03;;;;;;;0.00;0.00;;;3.40;1.00;;;;;;5049784;28;20123;-83
2023/03/16 00:14:30;;;;;;;0.10;0.10;;;3.40;1.00;;;;;;5050856;28;20068;-83
2023/03/16 00:16:56;;;;;;;0.60;0.60;;;3.50;1.00;;;;;;5065431;28;20071;-84
2023/03/16 00:19:22;;;;;;;0.10;0.10;;;3.40;1.00;;;;;;5042941;28;20071;-84
2023/03/16 00:21:51;;;;;;;0.43;0.43;;;3.40;1.00;;;;;;5039698;28;20045;-84
2023/03/16 00:24:18;;;;;;;0.38;0.38;;;3.40;1.00;;;;;;5045000;28;20044;-84
2023/03/16 00:26:47;;;;;;;5.82;0.43;;;3.40;1.00;;;;;;5049656;28;20041;-83
2023/03/16 00:29:13;;;;;;;0.00;0.00;;;3.40;1.00;;;;;;5051751;28;20060;-83
2023/03/16 00:31:43;;;;;;;0.00;0.00;;;3.40;1.00;;;;;;5052048;28;20125;-84
2023/03/16 00:34:11;;;;;;;0.10;0.10;;;3.50;1.00;;;;;;5051044;28;20048;-83
2023/03/16 00:36:37;;;;;;;0.00;0.00;;;3.40;1.00;;;;;;5050498;28;20052;-83
2023/03/16 00:39:05;;;;;;;0.00;0.00;;;3.40;1.00;;;;;;5051437;28;20079;-83
2023/03/16 00:41:31;;;;;;;0.00;0.00;;;3.40;1.00;;;;;;5051666;28;20132;-83
2023/03/16 00:43:57;;;;;;;0.10;0.10;;;3.40;1.00;;;;;;5051314;28;20077;-84
2023/03/16 00:46:25;;;;;;;0.10;0.10;;;3.50;1.00;;;;;;5051045;28;20045;-83
2023/03/16 00:48:51;;;;;;;0.30;0.30;;;3.50;1.00;;;;;;5051201;28;20064;-84
2023/03/16 00:51:18;;;;;;;0.22;0.22;;;3.50;1.00;;;;;;5052230;28;20045;-83
2023/03/16 00:53:44;;;;;;;0.00;0.00;;;3.40;1.00;;;;;;5050907;28;20052;-83
2023/03/16 00:56:11;;;;;;;0.00;0.00;;;3.50;1.00;;;;;;5050889;28;20049;-83
2023/03/16 00:58:41;;;;;;;0.00;0.00;;;3.50;1.00;;;;;;5051471;28;20037;-83
2023/03/16 01:01:26;;;;;;;0.20;0.20;;;3.60;1.00;;;;;;5083533;28;20411;-84
2023/03/16 01:03:53;;;;;;;0.20;0.20;;;3.60;1.00;;;;;;5049372;28;20053;-84
2023/03/16 01:06:22;;;;;;;0.00;0.00;;;3.70;1.00;;;;;;5050050;28;20490;-83
2023/03/16 01:08:47;;;;;;;0.85;0.85;;;3.70;1.00;;;;;;5048993;28;20067;-83
2023/03/16 01:11:19;;;;;;;6.90;1.08;;;3.70;1.00;;;;;;5051519;28;20041;-83
2023/03/16 01:13:46;;;;;;;0.32;0.32;;;3.70;1.00;;;;;;5052141;28;20048;-85
2023/03/16 01:16:11;;;;;;;0.50;0.50;;;3.70;1.00;;;;;;5051942;28;20147;-85
2023/03/16 01:18:38;;;;;;;0.52;0.52;;;3.70;1.00;;;;;;5050216;28;20069;-84
2023/03/16 01:21:06;;;;;;;0.00;0.00;;;3.70;1.00;;;;;;5051366;28;20047;-84
2023/03/16 01:23:33;;;;;;;0.00;0.00;;;3.70;1.00;;;;;;5050596;28;20126;-85
2023/03/16 01:25:59;;;;;;;0.20;0.20;;;3.70;1.00;;;;;;5048785;28;20045;-84
2023/03/16 01:28:27;;;;;;;0.40;0.40;;;3.70;1.00;;;;;;5050901;28;20083;-84
2023/03/16 01:30:57;;;;;;;0.20;0.20;;;3.70;1.00;;;;;;5056529;28;20126;-83
2023/03/16 01:33:25;;;;;;;0.00;0.00;;;3.70;1.00;;;;;;5054963;28;20109;-84
2023/03/16 01:35:58;;;;;;;0.10;0.10;;;3.70;1.00;;;;;;5054921;28;20094;-84
2023/03/16 01:38:25;;;;;;;2.95;0.80;;;3.80;1.00;;;;;;5055385;28;20049;-84
2023/03/16 01:40:52;;;;;;;0.00;0.00;;;3.80;1.00;;;;;;5055125;28;20052;-85
2023/03/16 01:43:20;;;;;;;0.10;0.10;;;3.80;1.00;;;;;;5054403;28;20136;-84
2023/03/16 01:46:16;;;;;;;0.57;0.57;;;3.80;1.00;;;;;;5054786;28;20090;-84
2023/03/16 01:49:08;;;;;;;18.17;1.60;;;3.80;1.00;;;;;;5054154;28;20125;-84
2023/03/16 01:51:42;;;;;;;0.43;0.43;;;3.80;1.00;;;;;;5053182;28;20056;-84
2023/03/16 01:54:20;;;;;;;0.30;0.30;;;3.80;1.00;;;;;;5054090;28;20074;-83
2023/03/16 01:57:09;;;;;;;0.00;0.00;;;3.80;1.00;;;;;;5071428;28;20096;-84
2023/03/16 01:59:41;;;;;;;0.05;0.05;;;3.70;1.00;;;;;;5055048;28;20060;-83
2023/03/16 02:02:08;;;;;;;0.85;0.40;;;3.80;1.00;;;;;;5055541;28;20049;-84
2023/03/16 02:04:58;;;;;;;0.00;0.00;;;3.90;1.00;;;;;;5056949;28;20064;-84
2023/03/16 02:07:27;;;;;;;0.00;0.00;;;3.90;1.00;;;;;;5055469;28;20085;-84
2023/03/16 02:09:57;;;;;;;0.00;0.00;;;3.80;1.00;;;;;;5055487;28;20052;-84
2023/03/16 02:12:23;;;;;;;0.20;0.20;;;3.90;1.00;;;;;;5055863;28;20092;-84
2023/03/16 02:14:50;;;;;;;0.08;0.08;;;3.80;1.00;;;;;;5054233;28;20484;-84
2023/03/16 02:17:20;;;;;;;0.00;0.00;;;3.80;1.00;;;;;;5055233;28;20053;-84
2023/03/16 02:20:18;;;;;;;0.00;0.00;;;3.90;1.00;;;;;;5054763;28;20280;-84
2023/03/16 02:22:47;;;;;;;0.10;0.10;;;3.90;1.00;;;;;;5053789;28;20534;-84
2023/03/16 02:25:17;;;;;;;0.30;0.30;;;3.90;1.00;;;;;;5054894;28;20155;-83
2023/03/16 02:28:24;;;;;;;0.30;0.30;;;3.90;1.00;;;;;;5051686;28;20104;-85
2023/03/16 02:30:50;;;;;;;0.00;0.00;;;3.80;1.00;;;;;;5053842;28;20048;-84
2023/03/16 02:33:17;;;;;;;0.45;0.22;;;3.80;1.00;;;;;;5051555;28;20101;-84
2023/03/16 02:35:43;;;;;;;1.52;0.63;;;3.70;1.00;;;;;;5054147;28;20049;-85
2023/03/16 02:38:09;;;;;;;5.25;2.00;;;3.80;1.00;;;;;;5052191;28;20064;-84
2023/03/16 02:40:35;;;;;;;0.17;0.17;;;3.90;1.00;;;;;;5054269;28;20124;-84
2023/03/16 02:43:03;;;;;;;0.00;0.00;;;3.90;1.00;;;;;;5054025;28;20086;-83
2023/03/16 02:45:38;;;;;;;0.63;0.63;;;3.90;1.00;;;;;;5054897;28;20051;-84
2023/03/16 02:48:13;;;;;;;0.10;0.10;;;4.00;1.00;;;;;;5054939;28;20068;-83
2023/03/16 02:50:47;;;;;;;0.00;0.00;;;4.00;1.00;;;;;;5056073;28;20375;-84
2023/03/16 02:53:13;;;;;;;1.67;0.68;;;4.10;1.00;;;;;;5054924;28;20053;-83
2023/03/16 02:55:39;;;;;;;2.25;0.60;;;4.20;1.00;;;;;;5053943;28;20045;-84
2023/03/16 02:58:05;;;;;;;0.25;0.25;;;4.10;1.00;;;;;;5052154;28;20059;-83
2023/03/16 03:00:31;;;;;;;0.00;0.00;;;4.10;1.00;;;;;;5053870;28;20056;-84
2023/03/16 03:02:57;;;;;;;0.20;0.20;;;4.10;1.00;;;;;;5053815;28;20567;-84
2023/03/16 03:05:23;;;;;;;0.52;0.52;;;4.10;1.00;;;;;;5054073;28;20090;-84
2023/03/16 03:07:50;;;;;;;0.10;0.10;;;4.10;1.00;;;;;;5054256;28;20051;-83
2023/03/16 03:10:16;;;;;;;0.15;0.15;;;4.20;1.00;;;;;;5055026;28;20045;-84
2023/03/16 03:12:42;;;;;;;0.00;0.00;;;4.10;1.00;;;;;;5055033;28;20474;-83
2023/03/16 03:15:09;;;;;;;0.03;0.03;;;4.20;1.00;;;;;;5055207;28;20041;-84
2023/03/16 03:17:36;;;;;;;0.22;0.22;;;4.20;1.00;;;;;;5055186;28;20078;-83
2023/03/16 03:20:06;;;;;;;0.47;0.47;;;4.20;1.00;;;;;;5053968;28;20078;-83
2023/03/16 03:22:32;;;;;;;1.65;1.00;;;4.10;1.00;;;;;;5053437;28;20045;-84
2023/03/16 03:24:58;;;;;;;0.43;0.30;;;4.10;1.00;;;;;;5053725;28;20131;-84
2023/03/16 03:27:23;;;;;;;0.43;0.43;;;4.10;1.00;;;;;;5054398;28;20597;-83
2023/03/16 03:29:49;;;;;;;0.22;0.22;;;4.20;1.00;;;;;;5055387;28;20104;-83
2023/03/16 03:32:15;;;;;;;0.35;0.25;;;4.10;1.00;;;;;;5043895;28;20071;-84
2023/03/16 03:34:41;;;;;;;0.45;0.45;;;4.10;1.00;;;;;;5033904;28;20080;-83
2023/03/16 03:37:07;;;;;;;1.08;0.70;;;4.10;1.00;;;;;;5052029;28;20105;-83
2023/03/16 03:39:32;;;;;;;0.05;0.05;;;4.10;1.00;;;;;;5052842;28;20072;-83
2023/03/16 03:41:58;;;;;;;0.15;0.05;;;4.00;1.00;;;;;;5053875;28;20068;-84
2023/03/16 03:44:25;;;;;;;0.35;0.35;;;4.10;1.00;;;;;;5053934;28;20044;-84
2023/03/16 03:46:51;;;;;;;0.30;0.30;;;4.10;1.00;;;;;;5053613;28;20044;-84
2023/03/16 03:49:17;;;;;;;0.73;0.73;;;4.10;1.00;;;;;;5050881;28;20061;-84
2023/03/16 03:51:43;;;;;;;0.52;0.52;;;4.10;1.00;;;;;;5052200;28;20060;-84
2023/03/16 03:54:09;;;;;;;0.00;0.00;;;4.10;1.00;;;;;;5054168;28;20105;-83
2023/03/16 03:56:35;;;;;;;0.03;0.03;;;4.10;1.00;;;;;;5053832;28;20080;-84
2023/03/16 03:59:01;;;;;;;0.88;0.85;;;4.00;1.00;;;;;;5052986;28;20403;-84
2023/03/16 04:01:27;;;;;;;0.95;0.93;;;4.00;1.00;;;;;;5053161;28;20045;-84
2023/03/16 04:03:52;;;;;;;0.05;0.05;;;3.90;1.00;;;;;;5051583;28;20049;-83
2023/03/16 04:06:18;;;;;;;0.35;0.35;;;4.00;1.00;;;;;;5053712;28;20348;-83
2023/03/16 04:08:44;;;;;;;0.00;0.00;;;4.10;1.00;;;;;;5054407;28;20045;-84
2023/03/16 04:11:10;;;;;;;0.20;0.20;;;4.10;1.00;;;;;;5054932;28;20153;-84
2023/03/16 04:13:36;;;;;;;1.08;1.02;;;4.10;1.00;;;;;;5053331;28;20056;-84
2023/03/16 04:16:02;;;;;;;0.63;0.30;;;4.20;1.00;;;;;;5053104;28;20060;-84
2023/03/16 04:18:37;;;;;;;0.52;0.52;;;4.20;1.00;;;;;;5050774;28;20053;-85
2023/03/16 04:21:04;;;;;;;0.00;0.00;;;4.20;1.00;;;;;;5052973;28;20086;-84
2023/03/16 04:23:32;;;;;;;0.05;0.05;;;4.20;1.00;;;;;;5053297;28;20161;-84
2023/03/16 04:25:58;;;;;;;0.00;0.00;;;4.20;1.00;;;;;;5053166;28;20049;-85
2023/03/16 04:28:25;;;;;;;0.00;0.00;;;4.30;1.00;;;;;;5052624;28;20451;-84
2023/03/16 04:30:53;;;;;;;1.65;0.73;;;4.30;1.00;;;;;;5053417;28;20053;-84
2023/03/16 04:33:20;;;;;;;0.00;0.00;;;4.20;1.00;;;;;;5053260;28;20067;-84
2023/03/16 04:35:46;;;;;;;0.00;0.00;;;4.30;1.00;;;;;;5051274;28;20511;-84
2023/03/16 04:38:12;;;;;;;0.08;0.08;;;4.30;1.00;;;;;;5052097;28;20053;-84
2023/03/16 04:40:38;;;;;;;0.95;0.95;;;4.30;1.00;;;;;;5050564;28;20051;-84
2023/03/16 04:43:03;;;;;;;0.50;0.43;;;4.20;1.00;;;;;;5050117;28;20056;-84
2023/03/16 04:45:29;;;;;;;0.25;0.25;;;4.30;1.00;;;;;;5051694;28;20500;-84
2023/03/16 04:47:55;;;;;;;0.52;0.38;;;4.20;1.00;;;;;;5049688;28;20057;-84
2023/03/16 04:50:21;;;;;;;0.00;0.00;;;4.30;1.00;;;;;;5050242;28;20076;-85
2023/03/16 04:52:47;;;;;;;0.20;0.20;;;4.30;1.00;;;;;;5051873;28;20395;-84
2023/03/16 04:55:13;;;;;;;0.13;0.13;;;4.20;1.00;;;;;;5053188;28;20045;-85
2023/03/16 04:57:38;;;;;;;0.00;0.00;;;4.20;1.00;;;;;;5052263;28;20133;-84
2023/03/16 05:00:13;;;;;;;0.43;0.35;;;4.30;1.00;;;;;;5052569;28;20045;-84
2023/03/16 05:02:39;;;;;;;0.35;0.25;;;4.30;1.00;;;;;;5053620;28;20091;-85
2023/03/16 05:05:05;;;;;;;0.10;0.10;;;4.30;1.00;;;;;;5055127;28;20048;-84
2023/03/16 05:07:31;;;;;;;0.22;0.22;;;4.30;1.00;;;;;;5056876;28;20067;-84
2023/03/16 05:09:57;;;;;;;0.30;0.30;;;4.30;1.00;;;;;;5055857;28;20076;-84
2023/03/16 05:12:22;;;;;;;0.00;0.00;;;4.30;1.00;;;;;;5058260;28;20572;-84
2023/03/16 05:14:48;;;;;;;0.08;0.08;;;4.40;1.00;;;;;;5058522;28;20076;-84
2023/03/16 05:17:14;;;;;;;0.43;0.38;;;4.30;1.00;;;;;;5056904;28;20053;-84
2023/03/16 05:19:41;;;;;;;0.68;0.68;;;4.20;1.00;;;;;;5057061;28;20049;-84
2023/03/16 05:22:07;;;;;;;0.00;0.00;;;4.30;1.00;;;;;;5057627;28;20064;-84
2023/03/16 05:24:33;;;;;;;1.65;0.38;;;4.30;1.00;;;;;;5056423;28;20063;-84
2023/03/16 05:27:02;;;;;;;0.20;0.20;;;4.20;1.00;;;;;;5057275;28;20486;-86
2023/03/16 05:29:30;;;;;;;0.00;0.00;;;4.20;1.00;;;;;;5058417;28;20053;-84
2023/03/16 05:31:56;;;;;;;0.38;0.38;;;4.20;1.00;;;;;;5057349;28;20051;-84
2023/03/16 05:34:22;;;;;;;0.45;0.45;;;4.20;1.00;;;;;;5056887;28;20045;-84
2023/03/16 05:36:48;;;;;;;0.63;0.52;;;5.30;1.00;;;;;;5056852;28;20040;-84
2023/03/16 05:39:14;;;;;;;0.20;0.20;;;4.20;1.00;;;;;;5056799;28;20052;-83
2023/03/16 05:41:40;;;;;;;0.45;0.28;;;4.20;1.00;;;;;;5056066;28;20045;-84
2023/03/16 05:44:07;;;;;;;0.00;0.00;;;4.20;1.00;;;;;;5054406;28;20324;-84
2023/03/16 05:46:32;;;;;;;0.00;0.00;;;4.20;1.00;;;;;;5056468;28;20057;-84
2023/03/16 05:48:58;;;;;;;0.20;0.20;;;4.30;1.00;;;;;;5054770;28;20059;-84
2023/03/16 05:51:27;;;;;;;0.10;0.10;;;4.40;1.00;;;;;;5057163;28;20116;-84
2023/03/16 05:53:56;;;;;;;0.50;0.50;;;4.40;1.00;;;;;;5053052;28;20045;-84
2023/03/16 05:56:27;;;;;;;0.00;0.00;;;4.40;1.00;;;;;;5055009;28;20037;-84
2023/03/16 05:58:55;;;;;;;0.20;0.20;;;4.30;1.00;;;;;;5056408;28;20082;-84
2023/03/16 06:01:22;;;;;;;0.03;0.03;;;4.30;1.00;;;;;;5054791;28;20049;-84
2023/03/16 06:03:49;;;;;;;0.25;0.25;;;4.30;1.00;;;;;;5047050;28;20075;-84
2023/03/16 06:06:15;;;;;;;0.00;0.00;;;4.30;1.00;;;;;;5055069;28;20037;-84
2023/03/16 06:08:42;;;;;;;0.00;0.00;;;4.30;1.00;;;;;;5043933;28;20037;-84
2023/03/16 06:11:08;;;;;;;0.20;0.20;;;4.30;1.00;;;;;;5037066;28;20060;-84
2023/03/16 06:13:34;;;;;;;0.00;0.00;;;4.30;1.00;;;;;;5036997;28;20640;-84
2023/03/16 06:16:00;;;;;;;0.60;0.60;;;4.30;1.00;;;;;;5067394;28;20045;-84
2023/03/16 06:18:26;;;;;;;0.40;0.40;;;4.40;1.00;;;;;;5052351;28;20053;-84
2023/03/16 06:20:52;;;;;;;0.10;0.10;;;4.30;1.00;;;;;;5057745;28;20048;-84
2023/03/16 06:23:19;;;;;;;0.00;0.00;;;4.20;1.00;;;;;;5059976;28;20118;-85
2023/03/16 06:25:48;;;;;;;0.00;0.00;;;4.30;1.00;;;;;;5091794;28;20049;-84
2023/03/16 06:28:15;;;;;;;0.45;0.45;;;4.30;7.80;;;;;;5058760;28;20033;-84
2023/03/16 06:30:40;;;;;;;0.00;0.00;;;4.30;10.30;;;;;;5058626;28;20067;-83
2023/03/16 06:33:06;;;;;;;0.47;0.45;;;4.30;19.80;;;;;;5058781;28;20069;-84
2023/03/16 06:35:32;;;;;;;0.20;0.20;;;4.30;27.30;;;;;;5053994;28;20045;-83
2023/03/16 06:37:58;;;;;;;0.22;0.22;;;4.40;26.70;;;;;;5045406;28;20055;-84
2023/03/16 06:40:24;;;;;;;0.00;0.00;;;4.40;28.70;;;;;;5045819;28;20045;-84
2023/03/16 06:42:50;;;;;;;0.20;0.20;;;4.50;24.10;;;;;;5046364;28;20588;-84
2023/03/16 06:45:16;;;;;;;0.22;0.22;;;4.60;16.20;;;;;;5046553;28;20049;-84
2023/03/16 06:47:43;;;;;;;0.17;0.17;;;4.70;7.00;;;;;;5046432;28;20280;-84
2023/03/16 06:50:10;;;;;;;0.15;0.15;;;4.70;9.30;;;;;;5045540;28;20081;-84
2023/03/16 06:52:36;;;;;;;0.28;0.28;;;4.80;1.00;;;;;;5049222;28;20175;-84
2023/03/16 06:55:02;;;;;;;0.00;0.00;;;4.80;1.00;;;;;;5044876;28;20135;-84
2023/03/16 06:57:28;;;;;;;0.00;0.00;;;5.00;1.00;;;;;;5040986;28;20061;-81
2023/03/16 06:59:53;;;;;;;0.00;0.00;;;4.90;1.00;;;;;;5048246;28;20045;-84
2023/03/16 07:02:22;;;;;;;0.10;0.10;;;4.90;1.00;;;;;;5046791;28;20453;-84
2023/03/16 07:04:48;;;;;;;0.00;0.00;;;5.00;1.00;;;;;;5048267;28;20045;-84
2023/03/16 07:07:15;;;;;;;0.40;0.40;;;5.10;1.00;;;;;;5047011;28;20052;-83
2023/03/16 07:09:41;;;;;;;0.10;0.10;;;5.10;1.00;;;;;;5031045;28;20056;-82
2023/03/16 07:12:08;;;;;;;3.53;0.75;;;5.20;1.00;;;;;;5046681;28;20040;-82
2023/03/16 07:14:34;;;;;;;0.00;0.00;;;5.10;1.00;;;;;;5047103;28;20595;-82
2023/03/16 07:17:00;;;;;;;0.52;0.47;;;5.10;1.00;;;;;;5047026;28;20087;-83
2023/03/16 07:19:26;;;;;;;0.00;0.00;;;5.20;1.00;;;;;;5044826;28;20495;-83
2023/03/16 07:21:52;;;;;;;0.10;0.10;;;5.30;1.00;;;;;;5054742;28;20040;-83
2023/03/16 07:24:19;;;;;;;0.00;0.00;;;5.20;1.00;;;;;;5061614;28;20120;-83
2023/03/16 07:26:45;;;;;;;0.43;0.43;;;5.30;1.00;;;;;;5062299;28;20067;-83
2023/03/16 07:29:12;;;;;;;1.42;0.32;;;5.40;1.00;;;;;;5055473;28;20077;-83
2023/03/16 07:31:38;;;;;;;0.10;0.10;;;5.50;1.00;;;;;;5051153;28;20055;-83
2023/03/16 07:34:04;;;;;;;0.00;0.00;;;5.40;1.00;;;;;;5050128;28;20041;-83
2023/03/16 07:36:30;;;;;;;0.22;0.22;;;5.60;1.00;;;;;;5048754;28;20068;-83
2023/03/16 07:38:56;;;;;;;0.28;0.28;;;5.60;1.00;;;;;;5049134;28;20045;-83
2023/03/16 07:41:23;;;;;;;1.42;0.38;;;5.50;1.00;;;;;;5052106;28;20053;-84
2023/03/16 07:43:49;;;;;;;0.10;0.10;;;5.60;1.00;;;;;;5055139;28;20056;-83
2023/03/16 07:46:14;;;;;;;0.73;0.52;;;5.60;1.00;;;;;;5058945;28;20505;-83
2023/03/16 07:48:43;;;;;;;0.00;0.00;;;5.50;1.00;;;;;;5054667;28;20565;-82
2023/03/16 07:51:10;;;;;;;0.25;0.25;;;5.60;1.00;;;;;;5056671;28;20053;-83
2023/03/16 07:53:37;;;;;;;0.45;0.40;;;5.50;1.00;;;;;;5054131;28;20045;-83
2023/03/16 07:56:03;;;;;;;0.00;0.00;;;5.40;1.00;;;;;;5050925;28;20048;-83
2023/03/16 07:58:29;;;;;;;0.10;0.10;;;5.30;1.00;;;;;;5056661;28;20045;-83
2023/03/16 08:00:58;;;;;;;0.88;0.88;;;5.40;5.90;;;;;;5057456;28;20109;-83
2023/03/16 08:03:25;;;;;;;0.00;0.00;;;5.60;1.30;;;;;;5053386;28;20049;-83
2023/03/16 08:05:52;;;;;;;0.00;0.00;;;5.70;1.00;;;;;;5048612;28;20114;-83
2023/03/16 08:08:19;;;;;;;0.20;0.20;;;5.60;5.90;;;;;;5048252;28;20080;-83
2023/03/16 08:10:47;;;;;;;0.15;0.15;;;5.70;13.90;;;;;;5048902;28;20065;-83
2023/03/16 08:13:13;;;;;;;0.32;0.22;;;5.60;19.90;;;;;;5048994;28;20601;-83
2023/03/16 08:15:39;;;;;;;0.20;0.17;;;5.70;15.10;;;;;;5048307;28;20080;-83
2023/03/16 08:18:06;;;;;;;0.38;0.30;;;5.50;50.60;;;;;;5062325;28;20056;-83
2023/03/16 08:20:32;;;;;;;0.00;0.00;;;5.40;47.60;;;;;;5045987;28;20057;-84
2023/03/16 08:22:58;;;;;;;0.00;0.00;;;5.40;67.50;;;;;;5047875;28;20041;-84
2023/03/16 08:25:25;;;;;;;0.15;0.15;;;5.30;99.90;;;;;;5047788;28;20048;-84
2023/03/16 08:27:52;;;;;;;0.00;0.00;;;5.40;99.90;;;;;;5043871;28;20056;-84
2023/03/16 08:30:18;;;;;;;0.65;0.65;;;5.30;99.90;;;;;;5046801;28;20448;-84
2023/03/16 08:32:44;;;;;;;0.00;0.00;;;5.20;99.90;;;;;;5045729;28;20072;-84
2023/03/16 08:35:14;;;;;;;0.00;0.00;;;5.10;99.90;;;;;;5047427;28;20095;-84
2023/03/16 08:37:40;;;;;;;0.35;0.20;;;4.90;99.90;;;;;;5049846;28;20053;-83
2023/03/16 08:40:09;;;;;;;0.20;0.20;;;5.00;99.90;;;;;;5047836;28;20049;-83
2023/03/16 08:42:37;;;;;;;4.75;1.38;;;4.90;99.90;;;;;;5044741;28;20485;-84
2023/03/16 08:45:08;;;;;;;0.98;0.63;;;4.90;1.00;;;;;;5077178;28;20052;-84
2023/03/16 08:47:39;;;;;;;0.10;0.10;;;5.00;1.00;;;;;;5046562;28;20118;-84
2023/03/16 08:50:06;;;;;;;0.05;0.05;;;5.10;1.00;;;;;;5044250;28;20226;-83
2023/03/16 08:52:32;;;;;;;0.57;0.57;;;5.10;1.00;;;;;;5044169;28;20048;-84
2023/03/16 08:54:59;;;;;;;0.10;0.10;;;5.20;1.00;;;;;;5043524;28;20076;-84
2023/03/16 08:57:25;;;;;;;0.90;0.47;;;5.20;1.00;;;;;;5042735;28;20049;-84
2023/03/16 08:59:50;;;;;;;0.32;0.25;;;5.10;23.00;;;;;;5042441;28;20136;-84
2023/03/16 09:02:16;;;;;;;2.13;0.43;;;5.10;78.50;;;;;;5043096;28;20486;-84
2023/03/16 09:04:42;;;;;;;0.10;0.10;;;5.10;99.90;;;;;;5042169;28;20080;-84
2023/03/16 09:07:08;;;;;;;0.60;0.60;;;5.10;99.90;;;;;;5039236;28;20037;-84
2023/03/16 09:09:34;;;;;;;0.50;0.50;;;5.00;99.90;;;;;;5031953;28;20609;-84
2023/03/16 09:12:01;;;;;;;0.35;0.35;;;5.10;99.90;;;;;;5040619;28;20049;-84
2023/03/16 09:14:27;;;;;;;0.10;0.10;;;5.10;99.90;;;;;;5039248;28;20474;-84
2023/03/16 09:16:53;;;;;;;0.30;0.30;;;5.00;1.00;;;;;;5039039;28;20411;-85
2023/03/16 09:19:20;;;;;;;0.25;0.25;;;5.00;23.90;;;;;;5040580;28;20041;-84
2023/03/16 09:21:46;;;;;;;0.30;0.30;;;5.00;99.90;;;;;;5040557;28;20056;-84
2023/03/16 09:24:13;;;;;;;0.45;0.45;;;5.10;99.90;;;;;;5070668;28;20413;-84
2023/03/16 09:26:39;;;;;;;2.55;1.65;;;5.10;61.40;;;;;;5038461;28;20169;-84
2023/03/16 09:29:05;;;;;;;27.20;2.47;;;5.10;99.90;;;;;;5039010;28;20053;-84
2023/03/16 09:31:32;;;;;;;0.43;0.43;;;5.10;99.90;;;;;;5054684;28;20061;-85
2023/03/16 09:33:58;;;;;;;0.52;0.30;;;5.10;1.00;;;;;;5038961;28;20055;-85
2023/03/16 09:36:26;;;;;;;0.10;0.10;;;5.10;1.00;;;;;;5038959;28;20150;-85
2023/03/16 09:38:52;;;;;;;1.55;0.43;;;5.30;93.00;;;;;;5040420;28;20045;-85
2023/03/16 09:41:39;;;;;;;1.25;0.30;;;5.40;58.10;;;;;;5039606;28;20060;-85
2023/03/16 09:44:13;;;;;;;0.15;0.15;;;5.50;17.80;;;;;;5038956;28;20092;-84
2023/03/16 09:46:41;;;;;;;0.52;0.52;;;5.60;99.90;;;;;;5039849;28;20049;-85
2023/03/16 09:49:10;;;;;;;0.00;0.00;;;5.80;99.90;;;;;;5039759;28;20112;-84
2023/03/16 09:51:43;;;;;;;0.25;0.25;;;5.70;1.00;;;;;;5043515;28;20045;-84
2023/03/16 09:54:31;;;;;;;0.10;0.10;;;5.70;99.90;;;;;;5043944;28;20127;-85
2023/03/16 09:56:57;;;;;;;0.63;0.35;;;5.90;99.90;;;;;;5044937;28;20461;-84
2023/03/16 09:59:24;;;;;;;1.27;0.85;;;6.00;1.00;;;;;;5045546;28;20128;-84
2023/03/16 10:01:50;;;;;;;0.25;0.25;;;6.10;88.10;;;;;;5043998;28;20088;-84
2023/03/16 10:04:36;;;;;;;1.27;1.10;;;6.10;7.80;;;;;;5046103;28;20088;-84
2023/03/16 10:07:11;;;;;;;1.17;1.08;;;6.20;1.00;;;;;;5045719;28;20469;-84
2023/03/16 10:09:55;;;;;;;0.30;0.30;;;6.30;1.00;;;;;;5045276;28;20565;-84
2023/03/16 10:12:27;;;;;;;2.53;2.08;;;6.30;1.00;;;;;;5044442;28;20051;-84
2023/03/16 10:15:12;;;;;;;0.10;0.10;;;6.50;99.90;;;;;;5043465;28;20175;-84
2023/03/16 10:17:50;;;;;;;0.52;0.20;;;6.30;99.90;;;;;;5045172;28;20565;-84
2023/03/16 10:20:21;;;;;;;0.00;0.00;;;6.30;99.90;;;;;;5043450;28;20087;-84
2023/03/16 10:22:51;;;;;;;0.98;0.68;;;6.30;99.90;;;;;;5045198;28;20045;-85
2023/03/16 10:25:37;;;;;;;0.00;0.00;;;6.20;99.90;;;;;;5045102;28;20503;-84
2023/03/16 10:28:03;;;;;;;0.10;0.10;;;6.10;99.90;;;;;;5043324;28;20041;-85
2023/03/16 10:30:29;;;;;;;0.00;0.00;;;6.80;1.00;;;;;;5043452;28;20048;-84
2023/03/16 10:32:59;;;;;;;0.35;0.35;;;6.10;97.90;;;;;;5043577;28;20052;-85
2023/03/16 10:35:34;;;;;;;0.00;0.00;;;6.00;99.90;;;;;;5043390;28;20064;-85
2023/03/16 10:38:03;;;;;;;1.25;0.52;;;6.00;99.90;;;;;;5045081;28;20092;-84
2023/03/16 10:40:37;;;;;;;0.68;0.65;;;6.00;99.90;;;;;;5044117;28;20063;-84
2023/03/16 10:43:11;;;;;;;0.10;0.10;;;6.00;99.90;;;;;;5044918;28;20407;-84
2023/03/16 10:45:37;;;;;;;0.05;0.05;;;6.00;99.90;;;;;;5044227;28;20040;-85
2023/03/16 10:48:20;;;;;;;0.25;0.25;;;5.90;99.90;;;;;;5044177;28;20060;-85
2023/03/16 10:50:53;;;;;;;0.10;0.10;;;5.90;1.00;;;;;;5043897;28;20080;-84
2023/03/16 10:53:31;;;;;;;0.03;0.03;;;5.90;99.90;;;;;;5044060;28;20091;-84
2023/03/16 10:55:59;;;;;;;6.18;0.98;;;6.00;99.90;;;;;;5044910;28;20490;-84
2023/03/16 10:58:33;;;;;;;1.45;0.40;;;5.90;99.90;;;;;;5043553;28;20048;-84
2023/03/16 11:00:59;;;;;;;0.17;0.17;;;5.90;99.90;;;;;;5044180;28;20813;-85
2023/03/16 11:03:26;;;;;;;0.43;0.43;;;5.90;99.90;;;;;;5045350;28;20098;-84
2023/03/16 11:06:03;;;;;;;0.00;0.00;;;5.90;99.90;;;;;;5046244;28;20051;-84
2023/03/16 11:08:37;;;;;;;0.13;0.13;;;6.00;1.00;;;;;;5045294;28;20049;-84
2023/03/16 11:11:15;;;;;;;0.00;0.00;;;6.10;99.90;;;;;;5045890;28;20037;-84
2023/03/16 11:13:46;;;;;;;0.10;0.10;;;6.00;1.00;;;;;;5045839;28;20049;-84
2023/03/16 11:16:34;;;;;;;0.17;0.17;;;6.00;99.90;;;;;;5046739;28;20045;-84
2023/03/16 11:19:22;;;;;;;0.95;0.90;;;6.00;1.00;;;;;;5047065;28;20124;-84
2023/03/16 11:22:08;;;;;;;0.05;0.05;;;5.90;25.40;;;;;;5042047;28;20051;-84
2023/03/16 11:24:56;;;;;;;0.00;0.00;;;6.00;99.90;;;;;;5044298;28;20052;-84
2023/03/16 11:27:42;;;;;;;0.17;0.17;;;6.10;99.90;;;;;;5041808;28;20049;-84
2023/03/16 11:30:23;;;;;;;0.45;0.45;;;6.10;99.90;;;;;;5043794;28;20045;-84
2023/03/16 11:32:52;;;;;;;8.18;1.15;;;6.20;99.90;;;;;;5042066;28;20052;-84
2023/03/16 11:35:22;;;;;;;0.17;0.17;;;6.30;13.80;;;;;;5040440;28;20696;-84
2023/03/16 11:38:06;;;;;;;0.10;0.10;;;6.40;99.90;;;;;;5041719;28;20060;-84
2023/03/16 11:40:41;;;;;;;0.10;0.10;;;6.40;1.00;;;;;;5040594;28;20491;-84
2023/03/16 11:43:23;;;;;;;0.30;0.30;;;6.50;99.90;;;;;;5040164;28;20088;-84
2023/03/16 11:46:23;;;;;;;0.10;0.10;;;6.60;1.00;;;;;;5040591;28;20410;-84
2023/03/16 11:49:25;;;;;;;0.00;0.00;;;6.80;99.90;;;;;;5041395;28;20100;-84
2023/03/16 11:52:14;;;;;;;4.85;1.23;;;7.10;1.00;;;;;;5040187;28;20411;-84
2023/03/16 11:54:57;;;;;;;0.77;0.28;;;7.10;1.00;;;;;;5040955;28;20125;-85
2023/03/16 11:57:41;;;;;;;1.20;0.75;;;7.50;99.90;;;;;;5041241;28;20727;-84
2023/03/16 12:00:39;;;;;;;0.00;0.00;;;7.40;95.60;;;;;;5039192;28;20057;-84
2023/03/16 12:03:24;;;;;;;0.40;0.40;;;7.60;89.70;;;;;;5039726;28;20098;-84
2023/03/16 12:05:53;;;;;;;0.22;0.22;;;7.80;99.90;;;;;;5041035;28;20084;-84
2023/03/16 12:08:46;;;;;;;0.10;0.10;;;7.90;1.00;;;;;;5040899;28;20052;-85
2023/03/16 12:11:27;;;;;;;0.47;0.47;;;8.00;1.00;;;;;;5040253;28;20079;-85
2023/03/16 12:14:18;;;;;;;0.03;0.03;;;8.20;1.00;;;;;;5040173;28;20087;-85
2023/03/16 12:17:02;;;;;;;0.28;0.22;;;8.20;1.00;;;;;;5041992;28;20048;-83
2023/03/16 12:19:50;;;;;;;0.95;0.47;;;8.50;99.90;;;;;;5041681;28;20048;-84
2023/03/16 12:22:21;;;;;;;0.15;0.15;;;8.70;99.90;;;;;;5043025;28;20052;-84
2023/03/16 12:24:50;;;;;;;0.00;0.00;;;9.00;99.90;;;;;;5043260;28;20568;-84
2023/03/16 12:27:36;;;;;;;0.30;0.30;;;9.10;99.90;;;;;;5042081;28;20053;-85
2023/03/16 12:30:20;;;;;;;0.08;0.08;;;9.10;99.90;;;;;;5043059;28;20053;-84
2023/03/16 12:33:21;;;;;;;0.13;0.13;;;9.30;99.90;;;;;;5043195;28;20072;-84
2023/03/16 12:36:18;;;;;;;0.70;0.30;;;9.20;99.90;;;;;;5038094;28;20061;-84
2023/03/16 12:38:59;;;;;;;0.03;0.03;;;9.20;99.90;;;;;;5043445;28;20044;-84
2023/03/16 12:41:37;;;;;;;0.10;0.10;;;9.90;99.90;;;;;;5043521;28;20092;-84
2023/03/16 12:44:30;;;;;;;0.57;0.45;;;9.40;99.90;;;;;;5043634;28;20048;-85
2023/03/16 12:47:18;;;;;;;1.35;1.25;;;9.40;99.90;;;;;;5044485;28;20127;-84
2023/03/16 12:49:45;;;;;;;0.88;0.57;;;9.50;99.90;;;;;;5043790;28;20100;-84
2023/03/16 12:52:13;;;;;;;0.08;0.03;;;9.80;99.90;;;;;;5042953;28;20044;-84
2023/03/16 12:54:54;;;;;;;0.17;0.17;;;9.90;99.90;;;;;;5043035;28;20128;-84
2023/03/16 12:57:25;;;;;;;0.10;0.10;;;10.20;99.90;;;;;;5044389;28;20057;-84
2023/03/16 12:59:57;;;;;;;0.32;0.32;;;9.90;99.90;;;;;;5044732;28;20056;-84
2023/03/16 13:02:36;;;;;;;0.00;0.00;;;9.60;99.90;;;;;;5045692;28;20056;-84
2023/03/16 13:05:08;;;;;;;0.80;0.35;;;10.00;99.90;;;;;;5044633;28;20075;-84
2023/03/16 13:07:35;;;;;;;2.40;0.65;;;10.20;97.40;;;;;;5044416;28;20049;-84
2023/03/16 13:10:12;;;;;;;0.05;0.05;;;9.90;95.30;;;;;;5045565;28;20041;-83
2023/03/16 13:12:40;;;;;;;0.50;0.38;;;10.00;99.90;;;;;;5047015;28;20106;-84
2023/03/16 13:15:27;;;;;;;1.23;0.43;;;10.10;94.30;;;;;;5047604;28;20122;-84
2023/03/16 13:18:21;;;;;;;0.00;0.00;;;10.00;91.30;;;;;;5044810;28;20045;-84
2023/03/16 13:20:57;;;;;;;0.00;0.00;;;9.90;81.60;;;;;;5046635;28;20071;-83
2023/03/16 13:23:28;;;;;;;0.25;0.25;;;9.90;79.00;;;;;;5046192;28;20045;-83